sensor_id;sensor_type;location;lat;lon;timestamp;pressure;altitude;pressure_sealevel;temperature
71081;BMP180;58740;50.672;18.690;2022-11-20T00:01:33;98653.60;;;-3.80
71081;BMP180;58740;50.672;18.690;2022-11-20T00:04:01;98652.40;;;-3.80
71081;BMP180;58740;50.672;18.690;2022-11-20T00:06:29;98654.40;;;-3.90
71081;BMP180;58740;50.672;18.690;2022-11-20T00:08:59;98652.40;;;-3.96
71081;BMP180;58740;50.672;18.690;2022-11-20T00:11:32;98653.20;;;-4.00
71081;BMP180;58740;50.672;18.690;2022-11-20T00:14:02;98646.00;;;-4.08
71081;BMP180;58740;50.672;18.690;2022-11-20T00:16:31;98650.40;;;-4.00
71081;BMP180;58740;50.672;18.690;2022-11-20T00:19:00;98652.80;;;-4.00
71081;BMP180;58740;50.672;18.690;2022-11-20T00:21:29;98649.20;;;-4.00
71081;BMP180;58740;50.672;18.690;2022-11-20T00:23:58;98639.60;;;-4.10
71081;BMP180;58740;50.672;18.690;2022-11-20T00:26:28;98640.80;;;-4.10
71081;BMP180;58740;50.672;18.690;2022-11-20T00:28:59;98639.00;;;-4.10
71081;BMP180;58740;50.672;18.690;2022-11-20T00:31:29;98636.20;;;-4.12
71081;BMP180;58740;50.672;18.690;2022-11-20T00:33:57;98630.20;;;-4.10
71081;BMP180;58740;50.672;18.690;2022-11-20T00:36:27;98630.80;;;-4.10
71081;BMP180;58740;50.672;18.690;2022-11-20T00:38:58;98634.00;;;-4.02
71081;BMP180;58740;50.672;18.690;2022-11-20T00:41:28;98638.40;;;-4.00
71081;BMP180;58740;50.672;18.690;2022-11-20T00:43:56;98636.40;;;-3.90
71081;BMP180;58740;50.672;18.690;2022-11-20T00:46:27;98630.60;;;-3.90
71081;BMP180;58740;50.672;18.690;2022-11-20T00:48:55;98629.80;;;-3.90
71081;BMP180;58740;50.672;18.690;2022-11-20T00:51:26;98634.20;;;-3.90
71081;BMP180;58740;50.672;18.690;2022-11-20T00:53:57;98628.80;;;-4.00
71081;BMP180;58740;50.672;18.690;2022-11-20T00:56:26;98628.40;;;-4.04
71081;BMP180;58740;50.672;18.690;2022-11-20T00:58:54;98632.60;;;-4.10
71081;BMP180;58740;50.672;18.690;2022-11-20T01:01:25;98629.00;;;-4.18
71081;BMP180;58740;50.672;18.690;2022-11-20T01:03:58;98627.40;;;-4.20
71081;BMP180;58740;50.672;18.690;2022-11-20T01:06:34;98628.60;;;-4.20
71081;BMP180;58740;50.672;18.690;2022-11-20T01:09:13;98622.80;;;-4.20
71081;BMP180;58740;50.672;18.690;2022-11-20T01:11:43;98630.40;;;-4.30
71081;BMP180;58740;50.672;18.690;2022-11-20T01:14:19;98629.40;;;-4.30
71081;BMP180;58740;50.672;18.690;2022-11-20T01:16:50;98630.00;;;-4.40
71081;BMP180;58740;50.672;18.690;2022-11-20T01:19:22;98632.00;;;-4.40
71081;BMP180;58740;50.672;18.690;2022-11-20T01:21:53;98628.60;;;-4.50
71081;BMP180;58740;50.672;18.690;2022-11-20T01:24:22;98632.40;;;-4.50
71081;BMP180;58740;50.672;18.690;2022-11-20T01:26:51;98630.20;;;-4.50
71081;BMP180;58740;50.672;18.690;2022-11-20T01:29:23;98631.80;;;-4.40
71081;BMP180;58740;50.672;18.690;2022-11-20T01:31:52;98634.00;;;-4.40
71081;BMP180;58740;50.672;18.690;2022-11-20T01:34:22;98617.20;;;-4.40
71081;BMP180;58740;50.672;18.690;2022-11-20T01:36:51;98616.40;;;-4.40
71081;BMP180;58740;50.672;18.690;2022-11-20T01:39:23;98615.60;;;-4.40
71081;BMP180;58740;50.672;18.690;2022-11-20T01:41:53;98608.60;;;-4.40
71081;BMP180;58740;50.672;18.690;2022-11-20T01:44:57;98606.20;;;-4.40
71081;BMP180;58740;50.672;18.690;2022-11-20T01:47:37;98600.40;;;-4.40
71081;BMP180;58740;50.672;18.690;2022-11-20T01:50:17;98606.40;;;-4.40
71081;BMP180;58740;50.672;18.690;2022-11-20T01:53:02;98599.60;;;-4.48
71081;BMP180;58740;50.672;18.690;2022-11-20T01:55:47;98598.80;;;-4.50
71081;BMP180;58740;50.672;18.690;2022-11-20T01:58:20;98598.20;;;-4.50
71081;BMP180;58740;50.672;18.690;2022-11-20T02:00:48;98604.20;;;-4.50
71081;BMP180;58740;50.672;18.690;2022-11-20T02:03:20;98606.40;;;-4.48
71081;BMP180;58740;50.672;18.690;2022-11-20T02:06:10;98606.20;;;-4.44
71081;BMP180;58740;50.672;18.690;2022-11-20T02:08:39;98606.20;;;-4.50
71081;BMP180;58740;50.672;18.690;2022-11-20T02:11:07;98604.40;;;-4.50
71081;BMP180;58740;50.672;18.690;2022-11-20T02:13:35;98594.40;;;-4.50
71081;BMP180;58740;50.672;18.690;2022-11-20T02:16:29;98594.80;;;-4.50
71081;BMP180;58740;50.672;18.690;2022-11-20T02:19:01;98593.20;;;-4.50
71081;BMP180;58740;50.672;18.690;2022-11-20T02:21:40;98590.60;;;-4.50
71081;BMP180;58740;50.672;18.690;2022-11-20T02:24:18;98587.20;;;-4.48
71081;BMP180;58740;50.672;18.690;2022-11-20T02:26:55;98596.60;;;-4.50
71081;BMP180;58740;50.672;18.690;2022-11-20T02:29:37;98597.20;;;-4.50
71081;BMP180;58740;50.672;18.690;2022-11-20T02:32:23;98597.80;;;-4.50
71081;BMP180;58740;50.672;18.690;2022-11-20T02:34:51;98595.60;;;-4.50
71081;BMP180;58740;50.672;18.690;2022-11-20T02:37:20;98594.40;;;-4.44
71081;BMP180;58740;50.672;18.690;2022-11-20T02:39:51;98596.20;;;-4.40
71081;BMP180;58740;50.672;18.690;2022-11-20T02:42:19;98605.00;;;-4.40
71081;BMP180;58740;50.672;18.690;2022-11-20T02:44:46;98601.20;;;-4.40
71081;BMP180;58740;50.672;18.690;2022-11-20T02:47:14;98601.60;;;-4.40
71081;BMP180;58740;50.672;18.690;2022-11-20T02:49:42;98601.60;;;-4.40
71081;BMP180;58740;50.672;18.690;2022-11-20T02:52:09;98605.40;;;-4.30
71081;BMP180;58740;50.672;18.690;2022-11-20T02:54:37;98606.60;;;-4.30
71081;BMP180;58740;50.672;18.690;2022-11-20T02:57:05;98600.60;;;-4.26
71081;BMP180;58740;50.672;18.690;2022-11-20T02:59:32;98603.60;;;-4.20
71081;BMP180;58740;50.672;18.690;2022-11-20T03:02:00;98610.80;;;-4.20
71081;BMP180;58740;50.672;18.690;2022-11-20T03:04:28;98605.20;;;-4.20
71081;BMP180;58740;50.672;18.690;2022-11-20T03:06:56;98609.20;;;-4.28
71081;BMP180;58740;50.672;18.690;2022-11-20T03:09:24;98613.80;;;-4.20
71081;BMP180;58740;50.672;18.690;2022-11-20T03:11:51;98608.80;;;-4.20
71081;BMP180;58740;50.672;18.690;2022-11-20T03:14:19;98610.80;;;-4.20
71081;BMP180;58740;50.672;18.690;2022-11-20T03:16:47;98611.80;;;-4.16
71081;BMP180;58740;50.672;18.690;2022-11-20T03:19:15;98611.80;;;-4.20
71081;BMP180;58740;50.672;18.690;2022-11-20T03:21:43;98615.20;;;-4.20
71081;BMP180;58740;50.672;18.690;2022-11-20T03:24:10;98604.60;;;-4.20
71081;BMP180;58740;50.672;18.690;2022-11-20T03:26:39;98605.00;;;-4.20
71081;BMP180;58740;50.672;18.690;2022-11-20T03:29:07;98604.60;;;-4.30
71081;BMP180;58740;50.672;18.690;2022-11-20T03:31:38;98611.40;;;-4.30
71081;BMP180;58740;50.672;18.690;2022-11-20T03:34:11;98611.80;;;-4.30
71081;BMP180;58740;50.672;18.690;2022-11-20T03:36:41;98613.20;;;-4.30
71081;BMP180;58740;50.672;18.690;2022-11-20T03:39:09;98610.00;;;-4.20
71081;BMP180;58740;50.672;18.690;2022-11-20T03:41:40;98614.80;;;-4.20
71081;BMP180;58740;50.672;18.690;2022-11-20T03:44:11;98615.40;;;-4.20
71081;BMP180;58740;50.672;18.690;2022-11-20T03:46:39;98616.40;;;-4.20
71081;BMP180;58740;50.672;18.690;2022-11-20T03:49:07;98613.00;;;-4.20
71081;BMP180;58740;50.672;18.690;2022-11-20T03:51:36;98609.20;;;-4.20
71081;BMP180;58740;50.672;18.690;2022-11-20T03:54:07;98608.60;;;-4.10
71081;BMP180;58740;50.672;18.690;2022-11-20T03:56:38;98609.60;;;-4.10
71081;BMP180;58740;50.672;18.690;2022-11-20T03:59:06;98611.40;;;-4.02
71081;BMP180;58740;50.672;18.690;2022-11-20T04:01:36;98607.20;;;-4.00
71081;BMP180;58740;50.672;18.690;2022-11-20T04:04:05;98606.60;;;-4.00
71081;BMP180;58740;50.672;18.690;2022-11-20T04:06:36;98595.20;;;-3.98
71081;BMP180;58740;50.672;18.690;2022-11-20T04:09:05;98600.40;;;-3.94
71081;BMP180;58740;50.672;18.690;2022-11-20T04:11:36;98600.60;;;-4.00
71081;BMP180;58740;50.672;18.690;2022-11-20T04:14:06;98598.80;;;-4.00
71081;BMP180;58740;50.672;18.690;2022-11-20T04:16:36;98591.80;;;-4.00
71081;BMP180;58740;50.672;18.690;2022-11-20T04:19:09;98597.60;;;-4.00
71081;BMP180;58740;50.672;18.690;2022-11-20T04:21:37;98600.40;;;-4.00
71081;BMP180;58740;50.672;18.690;2022-11-20T04:24:06;98598.60;;;-4.00
71081;BMP180;58740;50.672;18.690;2022-11-20T04:26:34;98594.80;;;-4.04
71081;BMP180;58740;50.672;18.690;2022-11-20T04:29:03;98589.60;;;-4.10
71081;BMP180;58740;50.672;18.690;2022-11-20T04:31:34;98590.60;;;-4.10
71081;BMP180;58740;50.672;18.690;2022-11-20T04:34:05;98596.60;;;-4.10
71081;BMP180;58740;50.672;18.690;2022-11-20T04:36:33;98597.60;;;-4.10
71081;BMP180;58740;50.672;18.690;2022-11-20T04:39:05;98591.20;;;-4.02
71081;BMP180;58740;50.672;18.690;2022-11-20T04:41:36;98588.80;;;-4.00
71081;BMP180;58740;50.672;18.690;2022-11-20T04:44:05;98584.20;;;-4.00
71081;BMP180;58740;50.672;18.690;2022-11-20T04:46:40;98581.80;;;-4.00
71081;BMP180;58740;50.672;18.690;2022-11-20T04:49:09;98577.60;;;-3.90
71081;BMP180;58740;50.672;18.690;2022-11-20T04:51:38;98575.20;;;-3.90
71081;BMP180;58740;50.672;18.690;2022-11-20T04:54:06;98574.20;;;-3.90
71081;BMP180;58740;50.672;18.690;2022-11-20T04:56:33;98574.00;;;-3.90
71081;BMP180;58740;50.672;18.690;2022-11-20T04:59:02;98575.00;;;-3.98
71081;BMP180;58740;50.672;18.690;2022-11-20T05:01:30;98578.20;;;-4.00
71081;BMP180;58740;50.672;18.690;2022-11-20T05:03:58;98575.20;;;-4.00
71081;BMP180;58740;50.672;18.690;2022-11-20T05:06:26;98576.00;;;-4.10
71081;BMP180;58740;50.672;18.690;2022-11-20T05:08:53;98571.00;;;-4.20
71081;BMP180;58740;50.672;18.690;2022-11-20T05:11:21;98565.80;;;-4.20
71081;BMP180;58740;50.672;18.690;2022-11-20T05:13:51;98566.40;;;-4.30
71081;BMP180;58740;50.672;18.690;2022-11-20T05:16:24;98565.00;;;-4.30
71081;BMP180;58740;50.672;18.690;2022-11-20T05:18:54;98562.80;;;-4.34
71081;BMP180;58740;50.672;18.690;2022-11-20T05:21:22;98557.40;;;-4.40
71081;BMP180;58740;50.672;18.690;2022-11-20T05:23:50;98565.80;;;-4.40
71081;BMP180;58740;50.672;18.690;2022-11-20T05:26:21;98568.00;;;-4.40
71081;BMP180;58740;50.672;18.690;2022-11-20T05:28:50;98565.80;;;-4.50
71081;BMP180;58740;50.672;18.690;2022-11-20T05:31:22;98563.20;;;-4.60
71081;BMP180;58740;50.672;18.690;2022-11-20T05:33:56;98561.00;;;-4.60
71081;BMP180;58740;50.672;18.690;2022-11-20T05:36:25;98562.40;;;-4.60
71081;BMP180;58740;50.672;18.690;2022-11-20T05:38:52;98563.80;;;-4.60
71081;BMP180;58740;50.672;18.690;2022-11-20T05:41:28;98561.80;;;-4.60
71081;BMP180;58740;50.672;18.690;2022-11-20T05:43:57;98556.80;;;-4.60
71081;BMP180;58740;50.672;18.690;2022-11-20T05:46:26;98557.60;;;-4.58
71081;BMP180;58740;50.672;18.690;2022-11-20T05:48:57;98554.80;;;-4.60
71081;BMP180;58740;50.672;18.690;2022-11-20T05:51:27;98555.20;;;-4.60
71081;BMP180;58740;50.672;18.690;2022-11-20T05:53:57;98552.20;;;-4.60
71081;BMP180;58740;50.672;18.690;2022-11-20T05:56:26;98559.60;;;-4.70
71081;BMP180;58740;50.672;18.690;2022-11-20T05:58:53;98556.40;;;-4.76
71081;BMP180;58740;50.672;18.690;2022-11-20T06:01:24;98559.80;;;-4.80
71081;BMP180;58740;50.672;18.690;2022-11-20T06:03:53;98559.60;;;-4.80
71081;BMP180;58740;50.672;18.690;2022-11-20T06:06:22;98556.80;;;-4.74
71081;BMP180;58740;50.672;18.690;2022-11-20T06:08:50;98552.00;;;-4.70
71081;BMP180;58740;50.672;18.690;2022-11-20T06:11:18;98550.20;;;-4.80
71081;BMP180;58740;50.672;18.690;2022-11-20T06:13:46;98552.40;;;-4.80
71081;BMP180;58740;50.672;18.690;2022-11-20T06:16:18;98553.20;;;-4.80
71081;BMP180;58740;50.672;18.690;2022-11-20T06:18:47;98557.40;;;-4.86
71081;BMP180;58740;50.672;18.690;2022-11-20T06:21:19;98559.60;;;-4.88
71081;BMP180;58740;50.672;18.690;2022-11-20T06:23:49;98554.60;;;-4.86
71081;BMP180;58740;50.672;18.690;2022-11-20T06:26:24;98553.00;;;-4.80
71081;BMP180;58740;50.672;18.690;2022-11-20T06:28:53;98547.20;;;-4.78
71081;BMP180;58740;50.672;18.690;2022-11-20T06:31:24;98542.40;;;-4.70
71081;BMP180;58740;50.672;18.690;2022-11-20T06:33:53;98544.20;;;-4.70
71081;BMP180;58740;50.672;18.690;2022-11-20T06:36:22;98546.20;;;-4.60
71081;BMP180;58740;50.672;18.690;2022-11-20T06:38:50;98549.40;;;-4.56
71081;BMP180;58740;50.672;18.690;2022-11-20T06:41:20;98545.60;;;-4.50
71081;BMP180;58740;50.672;18.690;2022-11-20T06:43:49;98547.40;;;-4.50
71081;BMP180;58740;50.672;18.690;2022-11-20T06:46:19;98549.40;;;-4.48
71081;BMP180;58740;50.672;18.690;2022-11-20T06:48:48;98552.00;;;-4.40
71081;BMP180;58740;50.672;18.690;2022-11-20T06:51:17;98550.00;;;-4.50
71081;BMP180;58740;50.672;18.690;2022-11-20T06:53:45;98548.00;;;-4.42
71081;BMP180;58740;50.672;18.690;2022-11-20T06:56:13;98538.80;;;-4.44
71081;BMP180;58740;50.672;18.690;2022-11-20T06:58:40;98537.40;;;-4.46
71081;BMP180;58740;50.672;18.690;2022-11-20T07:01:14;98546.00;;;-4.48
71081;BMP180;58740;50.672;18.690;2022-11-20T07:03:42;98542.00;;;-4.44
71081;BMP180;58740;50.672;18.690;2022-11-20T07:06:10;98539.60;;;-4.40
71081;BMP180;58740;50.672;18.690;2022-11-20T07:08:38;98534.00;;;-4.40
71081;BMP180;58740;50.672;18.690;2022-11-20T07:11:07;98534.00;;;-4.40
71081;BMP180;58740;50.672;18.690;2022-11-20T07:13:35;98532.20;;;-4.34
71081;BMP180;58740;50.672;18.690;2022-11-20T07:16:07;98531.00;;;-4.30
71081;BMP180;58740;50.672;18.690;2022-11-20T07:18:36;98526.00;;;-4.28
71081;BMP180;58740;50.672;18.690;2022-11-20T07:21:07;98517.00;;;-4.20
71081;BMP180;58740;50.672;18.690;2022-11-20T07:23:36;98514.00;;;-4.20
71081;BMP180;58740;50.672;18.690;2022-11-20T07:26:07;98516.00;;;-4.10
71081;BMP180;58740;50.672;18.690;2022-11-20T07:28:36;98524.60;;;-4.00
71081;BMP180;58740;50.672;18.690;2022-11-20T07:31:04;98507.20;;;-3.90
71081;BMP180;58740;50.672;18.690;2022-11-20T07:33:34;98515.80;;;-3.80
71081;BMP180;58740;50.672;18.690;2022-11-20T07:36:02;98511.80;;;-3.66
71081;BMP180;58740;50.672;18.690;2022-11-20T07:38:30;98507.40;;;-3.58
71081;BMP180;58740;50.672;18.690;2022-11-20T07:40:58;98504.00;;;-3.50
71081;BMP180;58740;50.672;18.690;2022-11-20T07:43:26;98497.40;;;-3.40
71081;BMP180;58740;50.672;18.690;2022-11-20T07:45:58;98496.00;;;-3.30
71081;BMP180;58740;50.672;18.690;2022-11-20T07:48:26;98497.40;;;-3.20
71081;BMP180;58740;50.672;18.690;2022-11-20T07:50:57;98501.40;;;-3.10
71081;BMP180;58740;50.672;18.690;2022-11-20T07:53:25;98492.80;;;-3.00
71081;BMP180;58740;50.672;18.690;2022-11-20T07:55:53;98489.80;;;-3.00
71081;BMP180;58740;50.672;18.690;2022-11-20T07:58:21;98491.40;;;-3.00
71081;BMP180;58740;50.672;18.690;2022-11-20T08:00:49;98490.80;;;-2.90
71081;BMP180;58740;50.672;18.690;2022-11-20T08:03:17;98484.00;;;-2.84
71081;BMP180;58740;50.672;18.690;2022-11-20T08:05:51;98483.20;;;-2.82
71081;BMP180;58740;50.672;18.690;2022-11-20T08:08:19;98485.60;;;-2.80
71081;BMP180;58740;50.672;18.690;2022-11-20T08:10:47;98488.60;;;-2.80
71081;BMP180;58740;50.672;18.690;2022-11-20T08:13:15;98496.20;;;-2.80
71081;BMP180;58740;50.672;18.690;2022-11-20T08:16:02;98499.20;;;-2.70
71081;BMP180;58740;50.672;18.690;2022-11-20T08:18:29;98498.40;;;-2.60
71081;BMP180;58740;50.672;18.690;2022-11-20T08:21:05;98490.40;;;-2.54
71081;BMP180;58740;50.672;18.690;2022-11-20T08:23:33;98490.40;;;-2.50
71081;BMP180;58740;50.672;18.690;2022-11-20T08:26:00;98491.60;;;-2.40
71081;BMP180;58740;50.672;18.690;2022-11-20T08:28:28;98489.20;;;-2.40
71081;BMP180;58740;50.672;18.690;2022-11-20T08:31:00;98496.00;;;-2.40
71081;BMP180;58740;50.672;18.690;2022-11-20T08:33:29;98506.80;;;-2.40
71081;BMP180;58740;50.672;18.690;2022-11-20T08:36:03;98508.00;;;-2.40
71081;BMP180;58740;50.672;18.690;2022-11-20T08:38:32;98518.00;;;-2.40
71081;BMP180;58740;50.672;18.690;2022-11-20T08:41:03;98514.20;;;-2.40
71081;BMP180;58740;50.672;18.690;2022-11-20T08:44:04;98514.40;;;-2.32
71081;BMP180;58740;50.672;18.690;2022-11-20T08:46:40;98516.20;;;-2.30
71081;BMP180;58740;50.672;18.690;2022-11-20T08:49:11;98519.60;;;-2.30
71081;BMP180;58740;50.672;18.690;2022-11-20T08:51:40;98518.80;;;-2.22
71081;BMP180;58740;50.672;18.690;2022-11-20T08:54:08;98517.20;;;-2.20
71081;BMP180;58740;50.672;18.690;2022-11-20T08:56:36;98516.60;;;-2.10
71081;BMP180;58740;50.672;18.690;2022-11-20T08:59:04;98511.20;;;-2.00
71081;BMP180;58740;50.672;18.690;2022-11-20T09:01:52;98505.40;;;-1.98
71081;BMP180;58740;50.672;18.690;2022-11-20T09:04:20;98507.20;;;-2.00
71081;BMP180;58740;50.672;18.690;2022-11-20T09:06:48;98505.40;;;-2.00
71081;BMP180;58740;50.672;18.690;2022-11-20T09:09:19;98499.00;;;-1.94
71081;BMP180;58740;50.672;18.690;2022-11-20T09:11:47;98494.80;;;-1.90
71081;BMP180;58740;50.672;18.690;2022-11-20T09:14:17;98497.60;;;-1.90
71081;BMP180;58740;50.672;18.690;2022-11-20T09:16:45;98499.60;;;-1.80
71081;BMP180;58740;50.672;18.690;2022-11-20T09:19:14;98496.20;;;-1.80
71081;BMP180;58740;50.672;18.690;2022-11-20T09:22:02;98498.00;;;-1.80
71081;BMP180;58740;50.672;18.690;2022-11-20T09:24:30;98491.80;;;-1.80
71081;BMP180;58740;50.672;18.690;2022-11-20T09:26:57;98481.20;;;-1.76
71081;BMP180;58740;50.672;18.690;2022-11-20T09:29:25;98487.40;;;-1.68
71081;BMP180;58740;50.672;18.690;2022-11-20T09:31:53;98484.80;;;-1.60
71081;BMP180;58740;50.672;18.690;2022-11-20T09:34:20;98479.00;;;-1.60
71081;BMP180;58740;50.672;18.690;2022-11-20T09:36:48;98478.60;;;-1.50
71081;BMP180;58740;50.672;18.690;2022-11-20T09:39:16;98479.60;;;-1.50
71081;BMP180;58740;50.672;18.690;2022-11-20T09:42:09;98475.60;;;-1.50
71081;BMP180;58740;50.672;18.690;2022-11-20T09:45:04;98476.00;;;-1.42
71081;BMP180;58740;50.672;18.690;2022-11-20T09:51:36;98473.60;;;-1.40
71081;BMP180;58740;50.672;18.690;2022-11-20T09:54:22;98466.20;;;-1.30
71081;BMP180;58740;50.672;18.690;2022-11-20T09:56:59;98463.20;;;-1.30
71081;BMP180;58740;50.672;18.690;2022-11-20T09:59:53;98453.60;;;-1.20
71081;BMP180;58740;50.672;18.690;2022-11-20T10:05:10;98450.40;;;-1.00
71081;BMP180;58740;50.672;18.690;2022-11-20T10:08:07;98441.80;;;-0.90
71081;BMP180;58740;50.672;18.690;2022-11-20T10:10:45;98441.00;;;-0.90
71081;BMP180;58740;50.672;18.690;2022-11-20T10:21:38;98435.80;;;-0.70
71081;BMP180;58740;50.672;18.690;2022-11-20T10:24:33;98429.80;;;-0.62
71081;BMP180;58740;50.672;18.690;2022-11-20T10:29:42;98430.00;;;-0.60
71081;BMP180;58740;50.672;18.690;2022-11-20T10:32:20;98436.20;;;-0.50
71081;BMP180;58740;50.672;18.690;2022-11-20T10:35:14;98431.00;;;-0.48
71081;BMP180;58740;50.672;18.690;2022-11-20T10:37:49;98424.40;;;-0.38
71081;BMP180;58740;50.672;18.690;2022-11-20T10:40:32;98416.00;;;-0.30
71081;BMP180;58740;50.672;18.690;2022-11-20T10:43:32;98414.60;;;-0.20
71081;BMP180;58740;50.672;18.690;2022-11-20T10:46:12;98416.80;;;-0.10
71081;BMP180;58740;50.672;18.690;2022-11-20T10:48:44;98415.40;;;-0.10
71081;BMP180;58740;50.672;18.690;2022-11-20T10:51:40;98412.60;;;0.00
71081;BMP180;58740;50.672;18.690;2022-11-20T10:54:29;98407.40;;;0.00
71081;BMP180;58740;50.672;18.690;2022-11-20T11:00:13;98389.40;;;0.10
71081;BMP180;58740;50.672;18.690;2022-11-20T11:02:53;98392.80;;;0.18
71081;BMP180;58740;50.672;18.690;2022-11-20T11:05:39;98392.00;;;0.20
71081;BMP180;58740;50.672;18.690;2022-11-20T11:08:15;98392.60;;;0.20
71081;BMP180;58740;50.672;18.690;2022-11-20T11:10:59;98390.00;;;0.30
71081;BMP180;58740;50.672;18.690;2022-11-20T11:13:30;98390.80;;;0.30
71081;BMP180;58740;50.672;18.690;2022-11-20T11:15:58;98382.80;;;0.40
71081;BMP180;58740;50.672;18.690;2022-11-20T11:18:29;98379.20;;;0.40
71081;BMP180;58740;50.672;18.690;2022-11-20T11:21:01;98383.60;;;0.40
71081;BMP180;58740;50.672;18.690;2022-11-20T11:23:39;98379.20;;;0.48
71081;BMP180;58740;50.672;18.690;2022-11-20T11:26:23;98386.40;;;0.50
71081;BMP180;58740;50.672;18.690;2022-11-20T11:29:00;98381.80;;;0.60
71081;BMP180;58740;50.672;18.690;2022-11-20T11:31:32;98374.00;;;0.70
71081;BMP180;58740;50.672;18.690;2022-11-20T11:34:12;98361.00;;;0.80
71081;BMP180;58740;50.672;18.690;2022-11-20T11:36:42;98357.00;;;0.84
71081;BMP180;58740;50.672;18.690;2022-11-20T11:39:19;98351.20;;;0.90
71081;BMP180;58740;50.672;18.690;2022-11-20T11:41:49;98352.80;;;0.90
71081;BMP180;58740;50.672;18.690;2022-11-20T11:44:21;98355.80;;;0.90
71081;BMP180;58740;50.672;18.690;2022-11-20T11:47:25;98356.00;;;1.00
71081;BMP180;58740;50.672;18.690;2022-11-20T11:53:12;98360.00;;;0.98
71081;BMP180;58740;50.672;18.690;2022-11-20T11:56:08;98347.20;;;1.00
71081;BMP180;58740;50.672;18.690;2022-11-20T11:58:50;98342.00;;;1.00
71081;BMP180;58740;50.672;18.690;2022-11-20T12:04:16;98344.20;;;1.00
71081;BMP180;58740;50.672;18.690;2022-11-20T12:06:53;98340.20;;;1.00
71081;BMP180;58740;50.672;18.690;2022-11-20T12:09:38;98342.60;;;1.00
71081;BMP180;58740;50.672;18.690;2022-11-20T12:12:24;98340.40;;;1.00
71081;BMP180;58740;50.672;18.690;2022-11-20T12:14:55;98337.80;;;1.10
71081;BMP180;58740;50.672;18.690;2022-11-20T12:17:24;98343.60;;;1.10
71081;BMP180;58740;50.672;18.690;2022-11-20T12:19:52;98337.80;;;1.20
71081;BMP180;58740;50.672;18.690;2022-11-20T12:22:35;98335.20;;;1.28
71081;BMP180;58740;50.672;18.690;2022-11-20T12:30:47;98315.80;;;1.30
71081;BMP180;58740;50.672;18.690;2022-11-20T12:33:43;98320.80;;;1.30
71081;BMP180;58740;50.672;18.690;2022-11-20T12:39:05;98315.00;;;1.28
71081;BMP180;58740;50.672;18.690;2022-11-20T12:53:58;98300.20;;;1.30
71081;BMP180;58740;50.672;18.690;2022-11-20T12:56:45;98303.20;;;1.34
71081;BMP180;58740;50.672;18.690;2022-11-20T12:59:52;98285.00;;;1.40
71081;BMP180;58740;50.672;18.690;2022-11-20T13:05:31;98286.40;;;1.40
71081;BMP180;58740;50.672;18.690;2022-11-20T13:08:02;98283.40;;;1.40
71081;BMP180;58740;50.672;18.690;2022-11-20T13:10:44;98287.80;;;1.40
71081;BMP180;58740;50.672;18.690;2022-11-20T13:13:36;98290.00;;;1.40
71081;BMP180;58740;50.672;18.690;2022-11-20T13:16:24;98292.20;;;1.34
71081;BMP180;58740;50.672;18.690;2022-11-20T13:18:52;98283.80;;;1.30
71081;BMP180;58740;50.672;18.690;2022-11-20T13:21:39;98286.60;;;1.30
71081;BMP180;58740;50.672;18.690;2022-11-20T13:24:29;98281.80;;;1.30
71081;BMP180;58740;50.672;18.690;2022-11-20T13:29:43;98283.80;;;1.30
71081;BMP180;58740;50.672;18.690;2022-11-20T13:32:17;98288.60;;;1.40
71081;BMP180;58740;50.672;18.690;2022-11-20T13:34:56;98276.40;;;1.40
71081;BMP180;58740;50.672;18.690;2022-11-20T13:37:37;98270.80;;;1.40
71081;BMP180;58740;50.672;18.690;2022-11-20T13:42:44;98265.20;;;1.40
71081;BMP180;58740;50.672;18.690;2022-11-20T13:45:29;98266.00;;;1.40
71081;BMP180;58740;50.672;18.690;2022-11-20T13:48:04;98260.40;;;1.40
71081;BMP180;58740;50.672;18.690;2022-11-20T13:51:11;98262.00;;;1.40
71081;BMP180;58740;50.672;18.690;2022-11-20T13:59:38;98268.20;;;1.28
71081;BMP180;58740;50.672;18.690;2022-11-20T14:02:17;98263.60;;;1.20
71081;BMP180;58740;50.672;18.690;2022-11-20T14:04:51;98266.60;;;1.20
71081;BMP180;58740;50.672;18.690;2022-11-20T14:07:46;98265.00;;;1.10
71081;BMP180;58740;50.672;18.690;2022-11-20T14:10:27;98254.60;;;1.10
71081;BMP180;58740;50.672;18.690;2022-11-20T14:13:12;98248.80;;;1.00
71081;BMP180;58740;50.672;18.690;2022-11-20T14:15:42;98249.20;;;1.00
71081;BMP180;58740;50.672;18.690;2022-11-20T14:18:19;98252.80;;;0.94
71081;BMP180;58740;50.672;18.690;2022-11-20T14:20:48;98250.80;;;0.92
71081;BMP180;58740;50.672;18.690;2022-11-20T14:23:29;98249.60;;;1.00
71081;BMP180;58740;50.672;18.690;2022-11-20T14:25:57;98244.20;;;1.00
71081;BMP180;58740;50.672;18.690;2022-11-20T14:28:29;98243.80;;;1.00
71081;BMP180;58740;50.672;18.690;2022-11-20T14:30:57;98242.60;;;1.00
71081;BMP180;58740;50.672;18.690;2022-11-20T14:33:26;98248.20;;;1.00
71081;BMP180;58740;50.672;18.690;2022-11-20T14:35:57;98242.00;;;1.00
71081;BMP180;58740;50.672;18.690;2022-11-20T14:38:31;98235.40;;;1.00
71081;BMP180;58740;50.672;18.690;2022-11-20T14:41:09;98230.20;;;0.90
71081;BMP180;58740;50.672;18.690;2022-11-20T14:43:37;98230.00;;;0.90
71081;BMP180;58740;50.672;18.690;2022-11-20T14:46:08;98238.60;;;0.80
71081;BMP180;58740;50.672;18.690;2022-11-20T14:48:50;98244.80;;;0.74
71081;BMP180;58740;50.672;18.690;2022-11-20T14:51:39;98231.20;;;0.70
71081;BMP180;58740;50.672;18.690;2022-11-20T14:54:17;98239.60;;;0.60
71081;BMP180;58740;50.672;18.690;2022-11-20T14:57:00;98237.40;;;0.60
71081;BMP180;58740;50.672;18.690;2022-11-20T14:59:34;98230.20;;;0.50
71081;BMP180;58740;50.672;18.690;2022-11-20T15:02:10;98226.20;;;0.40
71081;BMP180;58740;50.672;18.690;2022-11-20T15:04:50;98225.60;;;0.40
71081;BMP180;58740;50.672;18.690;2022-11-20T15:07:41;98221.60;;;0.40
71081;BMP180;58740;50.672;18.690;2022-11-20T15:10:27;98221.60;;;0.40
71081;BMP180;58740;50.672;18.690;2022-11-20T15:13:03;98213.80;;;0.40
71081;BMP180;58740;50.672;18.690;2022-11-20T15:15:52;98207.00;;;0.40
71081;BMP180;58740;50.672;18.690;2022-11-20T15:18:26;98189.40;;;0.40
71081;BMP180;58740;50.672;18.690;2022-11-20T15:20:58;98186.80;;;0.40
71081;BMP180;58740;50.672;18.690;2022-11-20T15:23:28;98198.20;;;0.32
71081;BMP180;58740;50.672;18.690;2022-11-20T15:25:57;98190.00;;;0.34
71081;BMP180;58740;50.672;18.690;2022-11-20T15:28:39;98203.40;;;0.30
71081;BMP180;58740;50.672;18.690;2022-11-20T15:31:14;98204.80;;;0.30
71081;BMP180;58740;50.672;18.690;2022-11-20T15:33:42;98204.80;;;0.30
71081;BMP180;58740;50.672;18.690;2022-11-20T15:36:10;98202.00;;;0.30